createdAt,value
2018-11-14T00:01:10.016Z,6.49
2018-11-14T00:03:39.697Z,6.46
2018-11-14T00:06:09.032Z,6.47
2018-11-14T00:08:42.683Z,6.53
2018-11-14T00:11:15.953Z,6.53
2018-11-14T00:13:46.282Z,6.22
2018-11-14T00:16:15.453Z,5.92
2018-11-14T00:18:47.179Z,5.86
2018-11-14T00:21:16.733Z,5.70
2018-11-14T00:23:45.246Z,5.83
2018-11-14T00:26:13.762Z,5.95
2018-11-14T00:28:42.651Z,6.05
2018-11-14T00:31:16.699Z,6.14
2018-11-14T00:33:49.243Z,6.12
2018-11-14T00:37:00.245Z,5.92
2018-11-14T00:39:30.300Z,5.67
2018-11-14T00:42:03.370Z,5.58
2018-11-14T00:44:34.576Z,5.70
2018-11-14T00:47:05.501Z,5.73
2018-11-14T00:49:38.516Z,5.78
2018-11-14T00:52:08.786Z,5.86
2018-11-14T00:54:42.507Z,5.42
2018-11-14T00:57:13.056Z,5.31
2018-11-14T00:59:41.856Z,5.18
2018-11-14T01:02:15.419Z,5.14
2018-11-14T01:04:45.415Z,5.32
2018-11-14T01:07:14.961Z,5.54
2018-11-14T01:09:44.886Z,5.55
2018-11-14T01:12:14.227Z,5.47
2018-11-14T01:14:43.760Z,5.33
2018-11-14T01:17:11.996Z,5.12
2018-11-14T01:19:40.145Z,4.95
2018-11-14T01:22:08.270Z,4.87
2018-11-14T01:24:36.372Z,4.82
2018-11-14T01:27:04.476Z,4.67
2018-11-14T01:29:32.559Z,4.56
2018-11-14T01:32:00.723Z,4.52
2018-11-14T01:34:28.807Z,4.58
2018-11-14T01:36:56.895Z,4.57
2018-11-14T01:39:24.959Z,4.77
2018-11-14T01:41:53.043Z,4.65
2018-11-14T01:44:21.128Z,4.50
2018-11-14T01:46:49.244Z,4.31
2018-11-14T01:49:17.350Z,4.39
2018-11-14T01:51:45.424Z,4.37
2018-11-14T01:54:13.506Z,4.34
2018-11-14T01:56:41.580Z,4.50
2018-11-14T01:59:09.668Z,4.64
2018-11-14T02:01:37.768Z,4.67
2018-11-14T02:04:05.847Z,4.70
2018-11-14T02:06:33.947Z,4.52
2018-11-14T02:09:02.053Z,4.57
2018-11-14T02:11:30.173Z,4.77
2018-11-14T02:13:58.243Z,4.80
2018-11-14T02:16:26.328Z,4.81
2018-11-14T02:18:54.451Z,4.65
2018-11-14T02:21:22.531Z,4.57
2018-11-14T02:23:50.640Z,4.53
2018-11-14T02:26:18.724Z,4.33
2018-11-14T02:28:46.796Z,4.30
2018-11-14T02:31:14.889Z,4.19
2018-11-14T02:33:43.189Z,4.07
2018-11-14T02:36:11.275Z,4.03
2018-11-14T02:38:39.379Z,3.96
2018-11-14T02:41:07.459Z,3.90
2018-11-14T02:43:35.540Z,3.92
2018-11-14T02:46:03.651Z,4.06
2018-11-14T02:48:31.707Z,4.20
2018-11-14T02:51:16.041Z,4.30
2018-11-14T02:53:44.232Z,4.23
2018-11-14T02:56:12.372Z,4.27
2018-11-14T02:58:40.455Z,4.22
2018-11-14T03:01:08.803Z,4.09
2018-11-14T03:03:36.901Z,4.11
2018-11-14T03:06:05.204Z,4.22
2018-11-14T03:08:33.600Z,4.27
2018-11-14T03:11:01.721Z,4.37
2018-11-14T03:13:29.804Z,4.38
2018-11-14T03:15:57.891Z,4.53
2018-11-14T03:18:25.983Z,4.57
2018-11-14T03:20:54.091Z,4.55
2018-11-14T03:23:22.192Z,4.52
2018-11-14T03:25:50.505Z,4.41
2018-11-14T03:28:18.635Z,4.32
2018-11-14T03:30:46.725Z,4.43
2018-11-14T03:33:14.824Z,4.51
2018-11-14T03:35:48.229Z,4.59
2018-11-14T03:38:16.316Z,4.66
2018-11-14T03:40:44.404Z,4.68
2018-11-14T03:43:12.508Z,4.65
2018-11-14T03:45:40.584Z,4.55
2018-11-14T03:48:08.685Z,4.48
2018-11-14T03:50:36.757Z,4.37
2018-11-14T03:53:05.196Z,4.29
2018-11-14T03:55:33.309Z,4.27
2018-11-14T03:58:01.558Z,4.25
2018-11-14T04:00:29.595Z,4.29
2018-11-14T04:02:57.707Z,4.42
2018-11-14T04:05:25.907Z,4.47
2018-11-14T04:07:54.839Z,4.51
2018-11-14T04:10:23.103Z,4.50
2018-11-14T04:12:51.179Z,4.49
2018-11-14T04:15:19.281Z,4.52
2018-11-14T04:17:47.376Z,4.68
2018-11-14T04:20:16.624Z,4.59
2018-11-14T04:22:45.154Z,4.52
2018-11-14T04:25:15.059Z,4.45
2018-11-14T04:27:44.075Z,4.40
2018-11-14T04:30:14.273Z,4.37
2018-11-14T04:32:43.000Z,4.40
2018-11-14T04:35:12.488Z,4.43
2018-11-14T04:37:40.584Z,4.36
2018-11-14T04:40:10.785Z,4.44
2018-11-14T04:42:39.131Z,4.37
2018-11-14T04:45:09.776Z,4.33
2018-11-14T04:47:37.875Z,4.37
2018-11-14T04:50:07.896Z,4.44
2018-11-14T04:52:36.636Z,4.86
2018-11-14T04:55:05.257Z,4.95
2018-11-14T04:57:33.348Z,4.84
2018-11-14T05:00:01.472Z,4.74
2018-11-14T05:02:29.602Z,4.58
2018-11-14T05:04:57.675Z,4.65
2018-11-14T05:07:25.740Z,4.68
2018-11-14T05:09:53.837Z,4.64
2018-11-14T05:12:21.915Z,4.60
2018-11-14T05:14:50.015Z,4.67
2018-11-14T05:17:18.101Z,4.78
2018-11-14T05:19:46.227Z,4.84
2018-11-14T05:22:14.969Z,4.83
2018-11-14T05:24:43.221Z,4.85
2018-11-14T05:27:11.200Z,4.82
2018-11-14T05:29:39.555Z,4.81
2018-11-14T05:32:07.666Z,4.81
2018-11-14T05:34:35.820Z,4.86
2018-11-14T05:37:03.919Z,4.86
2018-11-14T05:39:32.015Z,4.97
2018-11-14T05:42:00.092Z,5.08
2018-11-14T05:44:28.180Z,5.03
2018-11-14T05:46:56.704Z,4.88
2018-11-14T05:49:24.815Z,4.83
2018-11-14T05:51:52.895Z,4.73
2018-11-14T05:54:20.967Z,4.84
2018-11-14T05:56:49.115Z,4.80
2018-11-14T05:59:17.275Z,4.75
2018-11-14T06:01:46.011Z,4.80
2018-11-14T06:04:14.334Z,4.99
2018-11-14T06:06:42.427Z,4.99
2018-11-14T06:09:12.317Z,4.96
2018-11-14T06:11:40.415Z,4.91
2018-11-14T06:14:08.563Z,5.09
2018-11-14T06:16:36.755Z,5.08
2018-11-14T06:19:04.953Z,5.03
2018-11-14T06:21:33.399Z,5.06
2018-11-14T06:24:01.493Z,5.00
2018-11-14T06:26:29.611Z,4.89
2018-11-14T06:28:57.705Z,4.92
2018-11-14T06:31:25.814Z,5.06
2018-11-14T06:33:53.891Z,5.12
2018-11-14T06:36:22.021Z,5.04
2018-11-14T06:38:50.088Z,4.98
2018-11-14T06:41:18.237Z,5.01
2018-11-14T06:43:46.351Z,5.03
2018-11-14T06:46:14.525Z,5.01
2018-11-14T06:48:42.651Z,5.09
2018-11-14T06:51:10.760Z,5.23
2018-11-14T06:53:38.842Z,5.36
2018-11-14T06:56:07.001Z,5.60
2018-11-14T06:58:35.187Z,5.67
2018-11-14T07:01:03.391Z,5.49
2018-11-14T07:03:31.593Z,5.57
2018-11-14T07:05:59.727Z,5.65
2018-11-14T07:08:27.747Z,5.77
2018-11-14T07:10:55.867Z,6.04
2018-11-14T07:13:23.959Z,6.09
2018-11-14T07:15:52.094Z,6.16
2018-11-14T07:18:20.191Z,6.16
2018-11-14T07:20:48.354Z,6.28
2018-11-14T07:23:16.442Z,6.31
2018-11-14T07:25:44.552Z,6.15
2018-11-14T07:28:12.673Z,6.25
2018-11-14T07:30:40.759Z,6.16
2018-11-14T07:33:09.991Z,6.12
2018-11-14T07:35:38.108Z,6.01
2018-11-14T07:38:41.034Z,6.03
2018-11-14T07:41:10.884Z,5.97
2018-11-14T07:43:39.483Z,6.08
2018-11-14T07:46:08.052Z,6.14
2018-11-14T07:48:36.427Z,6.26
2018-11-14T07:51:04.647Z,6.20
2018-11-14T07:53:33.178Z,6.08
2018-11-14T07:56:01.318Z,6.20
2018-11-14T07:58:29.430Z,6.30
2018-11-14T08:00:57.583Z,6.45
2018-11-14T08:03:27.079Z,6.55
2018-11-14T08:05:55.592Z,6.57
2018-11-14T08:08:23.810Z,6.51
2018-11-14T08:10:51.929Z,6.47
2018-11-14T08:13:23.161Z,6.43
2018-11-14T08:15:52.993Z,6.57
2018-11-14T08:18:21.812Z,6.60
2018-11-14T08:20:50.113Z,6.36
2018-11-14T08:23:24.861Z,6.37
2018-11-14T08:25:52.963Z,6.49
2018-11-14T08:28:21.071Z,6.48
2018-11-14T08:30:49.256Z,6.77
2018-11-14T08:33:17.419Z,7.04
2018-11-14T08:35:45.556Z,6.86
2018-11-14T08:38:13.902Z,6.90
2018-11-14T08:40:42.000Z,6.93
2018-11-14T08:43:10.310Z,6.96
2018-11-14T08:45:38.473Z,6.95
2018-11-14T08:48:07.088Z,7.21
2018-11-14T08:50:35.159Z,7.23
2018-11-14T08:53:03.412Z,7.28
2018-11-14T08:55:31.538Z,7.29
2018-11-14T08:57:59.675Z,7.36
2018-11-14T09:00:28.409Z,7.59
2018-11-14T09:02:56.532Z,7.42
2018-11-14T09:05:24.612Z,7.32
2018-11-14T09:07:52.793Z,7.48
2018-11-14T09:10:24.699Z,7.46
2018-11-14T09:12:52.853Z,7.67
2018-11-14T09:15:22.106Z,7.70
2018-11-14T09:17:50.366Z,7.75
2018-11-14T09:20:20.708Z,7.65
2018-11-14T09:22:48.859Z,7.50
2018-11-14T09:25:22.512Z,7.65
2018-11-14T09:27:50.679Z,7.77
2018-11-14T09:30:19.940Z,8.08
2018-11-14T09:32:49.168Z,7.87
2018-11-14T09:35:18.436Z,7.76
2018-11-14T09:37:46.676Z,7.66
2018-11-14T09:40:16.355Z,7.45
2018-11-14T09:42:44.467Z,7.64
2018-11-14T09:45:14.903Z,7.90
2018-11-14T09:47:43.047Z,7.94
2018-11-14T09:50:15.443Z,7.80
2018-11-14T09:52:44.629Z,7.95
2018-11-14T09:55:13.021Z,7.84
2018-11-14T09:57:41.834Z,7.73
2018-11-14T10:00:11.768Z,7.73
2018-11-14T10:02:40.298Z,7.78
2018-11-14T10:05:10.641Z,7.69
2018-11-14T10:07:39.438Z,7.56
2018-11-14T10:10:08.708Z,7.68
2018-11-14T10:12:37.689Z,7.83
2018-11-14T10:15:07.757Z,7.80
2018-11-14T10:17:36.291Z,7.73
2018-11-14T10:20:04.850Z,7.75
2018-11-14T10:22:33.035Z,7.88
2018-11-14T10:25:02.144Z,7.73
2018-11-14T10:27:30.228Z,7.86
2018-11-14T10:29:58.447Z,7.92
2018-11-14T10:32:26.583Z,7.91
2018-11-14T10:34:54.744Z,8.10
2018-11-14T10:37:22.859Z,8.18
2018-11-14T10:39:51.032Z,8.34
2018-11-14T10:42:19.128Z,8.65
2018-11-14T10:44:47.219Z,8.76
2018-11-14T10:47:15.309Z,8.86
2018-11-14T10:49:44.591Z,9.01
2018-11-14T10:52:12.685Z,9.10
2018-11-14T10:54:40.786Z,9.17
2018-11-14T10:57:08.900Z,9.24
2018-11-14T10:59:37.140Z,9.21
2018-11-14T11:02:11.060Z,9.38
2018-11-14T11:04:44.423Z,9.44
2018-11-14T11:07:17.740Z,9.49
2018-11-14T11:12:44.318Z,9.59
2018-11-14T11:15:18.356Z,9.35
2018-11-14T11:17:52.776Z,9.47
2018-11-14T11:20:20.888Z,9.44
2018-11-14T11:22:48.978Z,9.50
2018-11-14T11:25:17.291Z,9.43
2018-11-14T11:27:45.387Z,9.58
2018-11-14T11:30:13.496Z,9.65
2018-11-14T11:32:41.643Z,9.62
2018-11-14T11:35:09.711Z,9.53
2018-11-14T11:37:37.805Z,9.66
2018-11-14T11:40:06.688Z,9.66
2018-11-14T11:42:34.780Z,9.70
2018-11-14T11:45:02.880Z,9.79
2018-11-14T11:47:31.052Z,9.76
2018-11-14T11:49:59.220Z,9.73
2018-11-14T11:52:28.112Z,9.54
2018-11-14T11:54:56.247Z,9.64
2018-11-14T11:57:24.408Z,9.61
2018-11-14T11:59:52.696Z,9.69
2018-11-14T12:02:20.839Z,9.70
2018-11-14T12:04:48.901Z,9.80
2018-11-14T12:07:17.023Z,9.81
2018-11-14T12:09:45.240Z,9.89
2018-11-14T12:12:13.339Z,9.83
2018-11-14T12:14:41.428Z,9.80
2018-11-14T12:17:09.575Z,9.66
2018-11-14T12:19:37.920Z,9.77
2018-11-14T12:22:06.047Z,9.77
2018-11-14T12:24:34.129Z,9.67
2018-11-14T12:27:02.234Z,9.71
2018-11-14T12:29:31.187Z,9.69
2018-11-14T12:31:59.295Z,9.60
2018-11-14T12:34:27.876Z,9.59
2018-11-14T12:36:56.015Z,9.64
2018-11-14T12:39:24.137Z,9.68
2018-11-14T12:41:52.223Z,9.69
2018-11-14T12:44:20.359Z,9.68
2018-11-14T12:46:48.490Z,9.56
2018-11-14T12:49:16.640Z,9.57
2018-11-14T12:51:44.788Z,9.53
2018-11-14T12:54:12.919Z,9.45
2018-11-14T12:56:41.039Z,9.45
2018-11-14T12:59:09.160Z,9.50
2018-11-14T13:01:37.296Z,9.46
2018-11-14T13:04:05.560Z,9.50
2018-11-14T13:06:33.665Z,9.54
2018-11-14T13:09:01.796Z,9.58
2018-11-14T13:11:29.921Z,9.60
2018-11-14T13:13:58.032Z,9.52
2018-11-14T13:16:26.160Z,9.48
2018-11-14T13:18:54.936Z,9.49
2018-11-14T13:21:23.176Z,9.52
2018-11-14T13:23:51.391Z,9.53
2018-11-14T13:29:00.443Z,9.56
2018-11-14T13:31:28.469Z,9.46
2018-11-14T13:33:56.567Z,9.51
2018-11-14T13:36:24.955Z,9.49
2018-11-14T13:38:53.042Z,9.55
2018-11-14T13:41:21.133Z,9.55
2018-11-14T13:43:50.027Z,9.59
2018-11-14T13:46:18.092Z,9.60
2018-11-14T13:48:46.458Z,9.76
2018-11-14T13:51:14.720Z,9.66
2018-11-14T13:53:42.678Z,9.68
2018-11-14T13:56:10.736Z,9.60
2018-11-14T13:58:38.840Z,9.63
2018-11-14T14:01:07.014Z,9.71
2018-11-14T14:03:35.131Z,9.72
2018-11-14T14:06:03.235Z,9.76
2018-11-14T14:08:31.369Z,9.81
2018-11-14T14:10:59.431Z,9.71
2018-11-14T14:13:27.532Z,9.76
2018-11-14T14:15:55.948Z,9.85
2018-11-14T14:18:24.052Z,9.75
2018-11-14T14:20:52.375Z,9.84
2018-11-14T14:23:20.486Z,9.97
2018-11-14T14:25:48.576Z,9.93
2018-11-14T14:28:16.691Z,9.98
2018-11-14T14:30:45.990Z,10.09
2018-11-14T14:33:14.037Z,10.01
2018-11-14T14:35:42.134Z,10.05
2018-11-14T14:38:10.295Z,10.06
2018-11-14T14:40:38.394Z,10.07
2018-11-14T14:43:06.489Z,10.18
2018-11-14T14:45:34.612Z,10.19
2018-11-14T14:48:02.815Z,10.07
2018-11-14T14:50:30.956Z,10.09
2018-11-14T14:52:59.130Z,10.09
2018-11-14T14:55:27.255Z,10.05
2018-11-14T14:57:55.356Z,10.12
2018-11-14T15:00:24.768Z,10.08
2018-11-14T15:02:52.859Z,10.04
2018-11-14T15:05:20.960Z,10.04
2018-11-14T15:07:49.048Z,9.97
2018-11-14T15:10:18.322Z,9.91
2018-11-14T15:12:46.672Z,9.90
2018-11-14T15:15:15.239Z,9.88
2018-11-14T15:17:44.020Z,9.86
2018-11-14T15:20:14.644Z,9.93
2018-11-14T15:22:42.947Z,9.91
2018-11-14T15:25:12.655Z,9.85
2018-11-14T15:27:41.636Z,9.85
2018-11-14T15:30:13.875Z,9.84
2018-11-14T15:32:42.203Z,9.80
2018-11-14T15:35:11.589Z,9.77
2018-11-14T15:37:39.792Z,9.68
2018-11-14T15:40:10.044Z,9.77
2018-11-14T15:42:38.678Z,9.66
2018-11-14T15:45:09.845Z,9.71
2018-11-14T15:47:38.556Z,9.68
2018-11-14T15:50:09.104Z,9.63
2018-11-14T15:52:37.216Z,9.66
2018-11-14T15:55:06.507Z,9.55
2018-11-14T15:57:34.911Z,9.48
2018-11-14T16:00:03.009Z,9.37
2018-11-14T16:02:31.132Z,9.46
2018-11-14T16:04:59.284Z,9.34
2018-11-14T16:07:27.406Z,9.31
2018-11-14T16:09:55.495Z,9.38
2018-11-14T16:12:23.635Z,9.43
2018-11-14T16:14:51.693Z,9.25
2018-11-14T16:17:19.780Z,9.23
2018-11-14T16:19:47.876Z,9.21
2018-11-14T16:22:15.979Z,9.18
2018-11-14T16:24:44.128Z,9.22
2018-11-14T16:27:12.416Z,9.14
2018-11-14T16:29:40.615Z,9.16
2018-11-14T16:32:08.711Z,9.27
2018-11-14T16:34:36.804Z,9.14
2018-11-14T16:37:04.924Z,9.09
2018-11-14T16:39:33.004Z,9.08
2018-11-14T16:42:01.119Z,9.04
2018-11-14T16:44:29.289Z,9.02
2018-11-14T16:46:57.377Z,8.87
2018-11-14T16:49:25.462Z,8.91
2018-11-14T16:51:53.630Z,8.78
2018-11-14T16:54:21.772Z,8.72
2018-11-14T16:56:49.855Z,8.74
2018-11-14T16:59:17.986Z,8.68
2018-11-14T17:01:46.111Z,8.42
2018-11-14T17:04:14.211Z,8.40
2018-11-14T17:06:42.323Z,8.48
2018-11-14T17:09:12.096Z,8.48
2018-11-14T17:11:40.264Z,8.35
2018-11-14T17:14:08.740Z,8.25
2018-11-14T17:16:37.052Z,8.09
2018-11-14T17:19:05.791Z,8.15
2018-11-14T17:21:34.527Z,8.21
2018-11-14T17:24:02.892Z,8.35
2018-11-14T17:26:31.244Z,8.37
2018-11-14T17:28:59.336Z,8.38
2018-11-14T17:31:27.471Z,8.29
2018-11-14T17:33:55.591Z,8.42
2018-11-14T17:36:23.674Z,8.32
2018-11-14T17:38:51.759Z,8.49
2018-11-14T17:41:19.881Z,8.49
2018-11-14T17:43:47.978Z,8.38
2018-11-14T17:46:16.353Z,8.49
2018-11-14T17:48:44.460Z,8.43
2018-11-14T17:51:12.604Z,8.56
2018-11-14T17:53:40.712Z,8.64
2018-11-14T17:56:08.829Z,8.65
2018-11-14T17:58:37.014Z,8.72
2018-11-14T18:01:05.348Z,8.70
2018-11-14T18:03:33.434Z,8.72
2018-11-14T18:06:01.518Z,8.66
2018-11-14T18:08:29.622Z,8.57
2018-11-14T18:10:57.749Z,8.64
2018-11-14T18:13:25.890Z,8.68
2018-11-14T18:15:54.023Z,8.67
2018-11-14T18:18:22.225Z,8.72
2018-11-14T18:20:50.371Z,8.69
2018-11-14T18:23:18.480Z,8.67
2018-11-14T18:25:46.599Z,8.74
2018-11-14T18:28:14.735Z,8.83
2018-11-14T18:30:42.923Z,8.67
2018-11-14T18:33:10.968Z,8.69
2018-11-14T18:35:39.143Z,8.67
2018-11-14T18:38:07.293Z,8.78
2018-11-14T18:40:35.817Z,8.85
2018-11-14T18:43:04.432Z,8.90
2018-11-14T18:45:33.903Z,8.88
2018-11-14T18:48:02.495Z,8.79
2018-11-14T18:50:30.714Z,8.81
2018-11-14T18:52:58.796Z,8.73
2018-11-14T18:55:31.144Z,8.88
2018-11-14T18:57:59.939Z,8.75
2018-11-14T19:00:29.220Z,8.80
2018-11-14T19:02:57.561Z,8.92
2018-11-14T19:05:25.640Z,8.71
2018-11-14T19:07:53.739Z,8.86
2018-11-14T19:10:23.134Z,8.87
2018-11-14T19:12:51.840Z,8.91
2018-11-14T19:15:35.410Z,8.95
2018-11-14T19:18:04.140Z,8.94
2018-11-14T19:20:34.188Z,8.89
2018-11-14T19:23:02.972Z,8.92
2018-11-14T19:25:33.420Z,8.92
2018-11-14T19:28:01.587Z,8.89
2018-11-14T19:30:32.516Z,8.92
2018-11-14T19:33:15.921Z,8.97
2018-11-14T19:35:47.994Z,8.88
2018-11-14T19:38:26.114Z,8.82
2018-11-14T19:40:56.961Z,8.75
2018-11-14T19:43:28.225Z,8.80
2018-11-14T19:46:07.385Z,8.70
2018-11-14T19:48:39.799Z,8.86
2018-11-14T19:51:21.211Z,8.75
2018-11-14T19:53:57.027Z,8.94
2018-11-14T19:56:33.308Z,9.06
2018-11-14T19:59:06.218Z,9.09
2018-11-14T20:01:35.826Z,9.11
2018-11-14T20:04:05.983Z,9.07
2018-11-14T20:06:45.961Z,8.98
2018-11-14T20:09:15.291Z,9.08
2018-11-14T20:11:45.782Z,9.03
2018-11-14T20:14:23.321Z,9.04
2018-11-14T20:16:57.878Z,8.91
2018-11-14T20:19:28.383Z,8.72
2018-11-14T20:22:05.403Z,8.74
2018-11-14T20:24:43.277Z,8.82
2018-11-14T20:27:20.804Z,8.76
2018-11-14T20:29:56.821Z,8.80
2018-11-14T20:32:34.980Z,8.92
2018-11-14T20:35:10.174Z,8.82
2018-11-14T20:37:45.506Z,8.67
2018-11-14T20:40:20.166Z,8.77
2018-11-14T20:42:55.472Z,8.64
2018-11-14T20:45:29.677Z,8.78
2018-11-14T20:48:01.744Z,8.89
2018-11-14T20:50:36.371Z,8.83
2018-11-14T20:53:06.995Z,8.65
2018-11-14T20:55:39.943Z,8.76
2018-11-14T20:58:10.444Z,8.92
2018-11-14T21:00:42.623Z,8.73
2018-11-14T21:03:14.249Z,8.66
2018-11-14T21:05:47.929Z,8.72
2018-11-14T21:08:19.534Z,8.73
2018-11-14T21:10:53.993Z,8.75
2018-11-14T21:13:40.219Z,8.98
2018-11-14T21:16:21.040Z,8.90
2018-11-14T21:18:53.557Z,8.86
2018-11-14T21:21:23.309Z,8.92
2018-11-14T21:23:51.458Z,8.93
2018-11-14T21:26:23.225Z,8.85
2018-11-14T21:28:54.257Z,8.96
2018-11-14T21:31:31.490Z,8.83
2018-11-14T21:34:02.052Z,8.75
2018-11-14T21:36:35.613Z,8.76
2018-11-14T21:39:10.573Z,8.82
2018-11-14T21:41:40.242Z,9.00
2018-11-14T21:44:12.317Z,8.99
2018-11-14T21:46:46.483Z,9.04
2018-11-14T21:49:21.816Z,8.87
2018-11-14T21:51:58.717Z,8.87
2018-11-14T21:54:29.830Z,8.94
2018-11-14T21:57:05.034Z,8.85
2018-11-14T21:59:44.513Z,8.74
2018-11-14T22:02:17.588Z,8.91
2018-11-14T22:04:48.208Z,8.79
2018-11-14T22:07:26.547Z,8.83
2018-11-14T22:10:01.638Z,8.81
2018-11-14T22:15:27.192Z,8.68
2018-11-14T22:17:57.739Z,8.76
2018-11-14T22:20:30.874Z,8.74
2018-11-14T22:23:01.323Z,8.62
2018-11-14T22:25:36.232Z,8.59
2018-11-14T22:28:10.761Z,8.59
2018-11-14T22:30:45.140Z,8.64
2018-11-14T22:33:21.330Z,8.64
2018-11-14T22:35:53.575Z,8.54
2018-11-14T22:38:31.503Z,8.41
2018-11-14T22:40:59.631Z,8.33
2018-11-14T22:43:27.706Z,8.36
2018-11-14T22:45:55.808Z,8.36
2018-11-14T22:48:24.230Z,8.36
2018-11-14T22:50:52.335Z,8.27
2018-11-14T22:53:21.247Z,8.38
2018-11-14T22:55:49.951Z,8.39
2018-11-14T22:58:18.050Z,8.45
2018-11-14T23:00:46.734Z,8.37
2018-11-14T23:03:15.796Z,8.37
2018-11-14T23:05:47.801Z,8.36
2018-11-14T23:08:19.869Z,8.32
2018-11-14T23:10:57.177Z,8.17
2018-11-14T23:13:30.217Z,8.23
2018-11-14T23:16:01.075Z,8.24
2018-11-14T23:18:30.711Z,8.21
2018-11-14T23:34:56.195Z,8.20
2018-11-14T23:37:25.510Z,8.01
2018-11-14T23:39:54.686Z,8.09
2018-11-14T23:42:24.286Z,8.01
2018-11-14T23:44:58.889Z,7.93
2018-11-14T23:47:32.004Z,7.98
2018-11-14T23:50:00.789Z,8.03
2018-11-14T23:52:37.026Z,8.14
2018-11-14T23:55:09.846Z,8.15
2018-11-14T23:57:38.427Z,7.96
